sensor_id;sensor_type;location;lat;lon;timestamp;P1;durP1;ratioP1;P2;durP2;ratioP2
30307;SDS011;17114;52.314;8.910;2022-12-05T00:03:57;117.28;;;37.92;;
30307;SDS011;17114;52.314;8.910;2022-12-05T00:06:25;101.97;;;37.55;;
30307;SDS011;17114;52.314;8.910;2022-12-05T00:08:53;116.18;;;37.00;;
30307;SDS011;17114;52.314;8.910;2022-12-05T00:11:22;112.55;;;36.92;;
30307;SDS011;17114;52.314;8.910;2022-12-05T00:13:51;101.95;;;37.00;;
30307;SDS011;17114;52.314;8.910;2022-12-05T00:16:20;105.85;;;37.72;;
30307;SDS011;17114;52.314;8.910;2022-12-05T00:18:49;104.95;;;37.30;;
30307;SDS011;17114;52.314;8.910;2022-12-05T00:21:18;109.43;;;37.75;;
30307;SDS011;17114;52.314;8.910;2022-12-05T00:23:47;105.53;;;37.45;;
30307;SDS011;17114;52.314;8.910;2022-12-05T00:26:14;111.05;;;37.33;;
30307;SDS011;17114;52.314;8.910;2022-12-05T00:28:42;115.10;;;39.50;;
30307;SDS011;17114;52.314;8.910;2022-12-05T00:31:14;95.38;;;36.35;;
30307;SDS011;17114;52.314;8.910;2022-12-05T00:33:42;107.25;;;36.72;;
30307;SDS011;17114;52.314;8.910;2022-12-05T00:36:14;107.63;;;39.05;;
30307;SDS011;17114;52.314;8.910;2022-12-05T00:38:43;113.40;;;37.70;;
30307;SDS011;17114;52.314;8.910;2022-12-05T00:41:17;111.10;;;38.25;;
30307;SDS011;17114;52.314;8.910;2022-12-05T00:43:45;107.45;;;36.67;;
30307;SDS011;17114;52.314;8.910;2022-12-05T00:46:13;107.40;;;36.15;;
30307;SDS011;17114;52.314;8.910;2022-12-05T00:48:42;114.50;;;38.78;;
30307;SDS011;17114;52.314;8.910;2022-12-05T00:51:14;100.78;;;35.78;;
30307;SDS011;17114;52.314;8.910;2022-12-05T00:53:43;111.45;;;38.38;;
30307;SDS011;17114;52.314;8.910;2022-12-05T00:56:12;97.93;;;36.05;;
30307;SDS011;17114;52.314;8.910;2022-12-05T00:58:40;110.93;;;38.40;;
30307;SDS011;17114;52.314;8.910;2022-12-05T01:01:18;98.30;;;35.85;;
30307;SDS011;17114;52.314;8.910;2022-12-05T01:03:45;101.93;;;35.33;;
30307;SDS011;17114;52.314;8.910;2022-12-05T01:06:13;108.38;;;38.05;;
30307;SDS011;17114;52.314;8.910;2022-12-05T01:08:41;104.60;;;37.42;;
30307;SDS011;17114;52.314;8.910;2022-12-05T01:11:08;111.18;;;36.80;;
30307;SDS011;17114;52.314;8.910;2022-12-05T01:13:36;103.35;;;35.28;;
30307;SDS011;17114;52.314;8.910;2022-12-05T01:16:03;99.88;;;35.92;;
30307;SDS011;17114;52.314;8.910;2022-12-05T01:18:31;108.50;;;37.20;;
30307;SDS011;17114;52.314;8.910;2022-12-05T01:20:58;105.28;;;35.95;;
30307;SDS011;17114;52.314;8.910;2022-12-05T01:23:25;101.97;;;36.40;;
30307;SDS011;17114;52.314;8.910;2022-12-05T01:25:52;98.18;;;36.72;;
30307;SDS011;17114;52.314;8.910;2022-12-05T01:28:19;99.18;;;34.35;;
30307;SDS011;17114;52.314;8.910;2022-12-05T01:30:46;102.28;;;35.55;;
30307;SDS011;17114;52.314;8.910;2022-12-05T01:33:14;100.85;;;35.60;;
30307;SDS011;17114;52.314;8.910;2022-12-05T01:35:42;100.25;;;35.25;;
30307;SDS011;17114;52.314;8.910;2022-12-05T01:38:10;99.18;;;34.08;;
30307;SDS011;17114;52.314;8.910;2022-12-05T01:40:38;102.13;;;36.20;;
30307;SDS011;17114;52.314;8.910;2022-12-05T01:43:05;97.15;;;34.45;;
30307;SDS011;17114;52.314;8.910;2022-12-05T01:45:42;91.53;;;35.67;;
30307;SDS011;17114;52.314;8.910;2022-12-05T01:48:13;84.32;;;33.20;;
30307;SDS011;17114;52.314;8.910;2022-12-05T01:50:44;91.90;;;32.25;;
30307;SDS011;17114;52.314;8.910;2022-12-05T01:53:12;90.20;;;34.42;;
30307;SDS011;17114;52.314;8.910;2022-12-05T01:55:40;88.47;;;33.85;;
30307;SDS011;17114;52.314;8.910;2022-12-05T01:58:07;88.32;;;32.58;;
30307;SDS011;17114;52.314;8.910;2022-12-05T02:00:35;87.15;;;31.75;;
30307;SDS011;17114;52.314;8.910;2022-12-05T02:03:05;86.35;;;31.40;;
30307;SDS011;17114;52.314;8.910;2022-12-05T02:05:35;90.43;;;32.38;;
30307;SDS011;17114;52.314;8.910;2022-12-05T02:08:04;95.03;;;32.95;;
30307;SDS011;17114;52.314;8.910;2022-12-05T02:10:53;92.85;;;32.72;;
30307;SDS011;17114;52.314;8.910;2022-12-05T02:16:17;83.80;;;32.72;;
30307;SDS011;17114;52.314;8.910;2022-12-05T02:26:59;85.03;;;30.05;;
30307;SDS011;17114;52.314;8.910;2022-12-05T02:35:02;77.47;;;30.77;;
30307;SDS011;17114;52.314;8.910;2022-12-05T02:37:43;83.72;;;32.25;;
30307;SDS011;17114;52.314;8.910;2022-12-05T02:45:48;84.90;;;30.95;;
30307;SDS011;17114;52.314;8.910;2022-12-05T02:48:19;77.32;;;31.63;;
30307;SDS011;17114;52.314;8.910;2022-12-05T02:50:47;81.18;;;30.77;;
30307;SDS011;17114;52.314;8.910;2022-12-05T02:53:15;77.07;;;29.98;;
30307;SDS011;17114;52.314;8.910;2022-12-05T02:55:44;78.43;;;28.95;;
30307;SDS011;17114;52.314;8.910;2022-12-05T02:58:20;80.35;;;31.45;;
30307;SDS011;17114;52.314;8.910;2022-12-05T03:00:56;87.93;;;31.20;;
30307;SDS011;17114;52.314;8.910;2022-12-05T03:03:24;82.35;;;31.40;;
30307;SDS011;17114;52.314;8.910;2022-12-05T03:06:05;80.93;;;31.90;;
30307;SDS011;17114;52.314;8.910;2022-12-05T03:11:25;84.22;;;31.25;;
30307;SDS011;17114;52.314;8.910;2022-12-05T03:13:57;84.60;;;31.45;;
30307;SDS011;17114;52.314;8.910;2022-12-05T03:16:28;85.15;;;30.23;;
30307;SDS011;17114;52.314;8.910;2022-12-05T03:19:22;71.55;;;28.90;;
30307;SDS011;17114;52.314;8.910;2022-12-05T03:22:14;85.38;;;31.88;;
30307;SDS011;17114;52.314;8.910;2022-12-05T03:24:55;80.43;;;30.00;;
30307;SDS011;17114;52.314;8.910;2022-12-05T03:30:28;62.90;;;27.20;;
30307;SDS011;17114;52.314;8.910;2022-12-05T03:33:12;80.88;;;29.75;;
30307;SDS011;17114;52.314;8.910;2022-12-05T03:38:14;82.35;;;30.30;;
30307;SDS011;17114;52.314;8.910;2022-12-05T03:43:28;69.70;;;30.08;;
30307;SDS011;17114;52.314;8.910;2022-12-05T03:46:17;78.03;;;28.98;;
30307;SDS011;17114;52.314;8.910;2022-12-05T03:49:10;73.90;;;30.25;;
30307;SDS011;17114;52.314;8.910;2022-12-05T03:52:05;77.93;;;29.05;;
30307;SDS011;17114;52.314;8.910;2022-12-05T03:54:42;71.25;;;27.77;;
30307;SDS011;17114;52.314;8.910;2022-12-05T03:57:23;77.32;;;28.88;;
30307;SDS011;17114;52.314;8.910;2022-12-05T03:59:56;79.22;;;30.25;;
30307;SDS011;17114;52.314;8.910;2022-12-05T04:03:10;71.93;;;28.70;;
30307;SDS011;17114;52.314;8.910;2022-12-05T04:05:34;76.18;;;28.77;;
30307;SDS011;17114;52.314;8.910;2022-12-05T04:08:12;75.93;;;28.33;;
30307;SDS011;17114;52.314;8.910;2022-12-05T04:10:46;74.57;;;27.40;;
30307;SDS011;17114;52.314;8.910;2022-12-05T04:13:17;69.78;;;27.65;;
30307;SDS011;17114;52.314;8.910;2022-12-05T04:15:52;76.05;;;29.27;;
30307;SDS011;17114;52.314;8.910;2022-12-05T04:18:45;65.47;;;27.83;;
30307;SDS011;17114;52.314;8.910;2022-12-05T04:21:16;65.78;;;28.00;;
30307;SDS011;17114;52.314;8.910;2022-12-05T04:24:05;76.05;;;28.83;;
30307;SDS011;17114;52.314;8.910;2022-12-05T04:29:31;75.57;;;30.30;;
30307;SDS011;17114;52.314;8.910;2022-12-05T04:32:04;74.93;;;28.45;;
30307;SDS011;17114;52.314;8.910;2022-12-05T04:34:33;71.93;;;28.90;;
30307;SDS011;17114;52.314;8.910;2022-12-05T04:37:03;69.25;;;28.77;;
30307;SDS011;17114;52.314;8.910;2022-12-05T04:39:40;69.75;;;28.08;;
30307;SDS011;17114;52.314;8.910;2022-12-05T04:42:11;70.18;;;27.90;;
30307;SDS011;17114;52.314;8.910;2022-12-05T04:45:04;76.67;;;30.63;;
30307;SDS011;17114;52.314;8.910;2022-12-05T04:47:40;73.05;;;28.63;;
30307;SDS011;17114;52.314;8.910;2022-12-05T04:50:11;73.03;;;29.33;;
30307;SDS011;17114;52.314;8.910;2022-12-05T04:52:40;78.68;;;29.90;;
30307;SDS011;17114;52.314;8.910;2022-12-05T04:55:12;71.03;;;28.17;;
30307;SDS011;17114;52.314;8.910;2022-12-05T04:57:52;74.78;;;29.30;;
30307;SDS011;17114;52.314;8.910;2022-12-05T05:00:45;69.88;;;29.23;;
30307;SDS011;17114;52.314;8.910;2022-12-05T05:05:53;66.25;;;28.33;;
30307;SDS011;17114;52.314;8.910;2022-12-05T05:08:23;66.63;;;27.67;;
30307;SDS011;17114;52.314;8.910;2022-12-05T05:11:12;64.45;;;26.50;;
30307;SDS011;17114;52.314;8.910;2022-12-05T05:13:42;63.78;;;27.05;;
30307;SDS011;17114;52.314;8.910;2022-12-05T05:16:27;69.82;;;28.23;;
30307;SDS011;17114;52.314;8.910;2022-12-05T05:18:59;65.20;;;27.48;;
30307;SDS011;17114;52.314;8.910;2022-12-05T05:23:54;64.55;;;26.35;;
30307;SDS011;17114;52.314;8.910;2022-12-05T05:26:22;60.35;;;26.42;;
30307;SDS011;17114;52.314;8.910;2022-12-05T05:28:51;61.28;;;27.35;;
30307;SDS011;17114;52.314;8.910;2022-12-05T05:31:19;62.60;;;26.67;;
30307;SDS011;17114;52.314;8.910;2022-12-05T05:33:47;61.75;;;27.33;;
30307;SDS011;17114;52.314;8.910;2022-12-05T05:36:15;70.43;;;29.17;;
30307;SDS011;17114;52.314;8.910;2022-12-05T05:38:43;60.10;;;26.48;;
30307;SDS011;17114;52.314;8.910;2022-12-05T05:41:16;67.30;;;26.23;;
30307;SDS011;17114;52.314;8.910;2022-12-05T05:43:48;63.53;;;26.63;;
30307;SDS011;17114;52.314;8.910;2022-12-05T05:46:18;58.67;;;25.90;;
30307;SDS011;17114;52.314;8.910;2022-12-05T05:48:47;60.65;;;27.33;;
30307;SDS011;17114;52.314;8.910;2022-12-05T05:51:16;61.10;;;27.15;;
30307;SDS011;17114;52.314;8.910;2022-12-05T05:53:44;65.13;;;27.42;;
30307;SDS011;17114;52.314;8.910;2022-12-05T05:56:12;65.13;;;28.42;;
30307;SDS011;17114;52.314;8.910;2022-12-05T05:58:47;58.97;;;28.10;;
30307;SDS011;17114;52.314;8.910;2022-12-05T06:01:20;58.80;;;25.42;;
30307;SDS011;17114;52.314;8.910;2022-12-05T06:03:47;68.75;;;28.13;;
30307;SDS011;17114;52.314;8.910;2022-12-05T06:06:16;60.05;;;26.25;;
30307;SDS011;17114;52.314;8.910;2022-12-05T06:08:44;64.72;;;27.23;;
30307;SDS011;17114;52.314;8.910;2022-12-05T06:11:12;62.70;;;25.55;;
30307;SDS011;17114;52.314;8.910;2022-12-05T06:13:51;56.58;;;24.02;;
30307;SDS011;17114;52.314;8.910;2022-12-05T06:16:22;61.35;;;25.65;;
30307;SDS011;17114;52.314;8.910;2022-12-05T06:18:50;62.90;;;26.08;;
30307;SDS011;17114;52.314;8.910;2022-12-05T06:21:17;61.35;;;26.33;;
30307;SDS011;17114;52.314;8.910;2022-12-05T06:23:45;59.50;;;25.33;;
30307;SDS011;17114;52.314;8.910;2022-12-05T06:26:13;62.03;;;25.77;;
30307;SDS011;17114;52.314;8.910;2022-12-05T06:28:44;54.00;;;23.77;;
30307;SDS011;17114;52.314;8.910;2022-12-05T06:31:12;53.17;;;24.52;;
30307;SDS011;17114;52.314;8.910;2022-12-05T06:33:44;53.83;;;23.17;;
30307;SDS011;17114;52.314;8.910;2022-12-05T06:36:12;55.83;;;24.90;;
30307;SDS011;17114;52.314;8.910;2022-12-05T06:38:42;56.95;;;25.45;;
30307;SDS011;17114;52.314;8.910;2022-12-05T06:41:18;55.20;;;24.80;;
30307;SDS011;17114;52.314;8.910;2022-12-05T06:43:46;52.05;;;23.17;;
30307;SDS011;17114;52.314;8.910;2022-12-05T06:46:13;56.88;;;24.80;;
30307;SDS011;17114;52.314;8.910;2022-12-05T06:48:41;55.97;;;24.15;;
30307;SDS011;17114;52.314;8.910;2022-12-05T06:51:09;55.90;;;23.30;;
30307;SDS011;17114;52.314;8.910;2022-12-05T06:53:37;55.35;;;23.85;;
30307;SDS011;17114;52.314;8.910;2022-12-05T06:56:05;54.95;;;24.17;;
30307;SDS011;17114;52.314;8.910;2022-12-05T06:58:33;56.88;;;23.45;;
30307;SDS011;17114;52.314;8.910;2022-12-05T07:01:00;56.90;;;23.92;;
30307;SDS011;17114;52.314;8.910;2022-12-05T07:03:47;51.53;;;23.05;;
30307;SDS011;17114;52.314;8.910;2022-12-05T07:06:14;50.97;;;22.88;;
30307;SDS011;17114;52.314;8.910;2022-12-05T07:08:42;55.45;;;24.20;;
30307;SDS011;17114;52.314;8.910;2022-12-05T07:11:08;51.95;;;22.90;;
30307;SDS011;17114;52.314;8.910;2022-12-05T07:13:36;48.83;;;23.55;;
30307;SDS011;17114;52.314;8.910;2022-12-05T07:16:02;55.10;;;22.90;;
30307;SDS011;17114;52.314;8.910;2022-12-05T07:18:32;54.60;;;23.45;;
30307;SDS011;17114;52.314;8.910;2022-12-05T07:21:01;48.22;;;22.63;;
30307;SDS011;17114;52.314;8.910;2022-12-05T07:23:39;50.20;;;23.05;;
30307;SDS011;17114;52.314;8.910;2022-12-05T07:26:07;49.47;;;21.63;;
30307;SDS011;17114;52.314;8.910;2022-12-05T07:28:36;48.92;;;21.25;;
30307;SDS011;17114;52.314;8.910;2022-12-05T07:31:04;46.45;;;22.50;;
30307;SDS011;17114;52.314;8.910;2022-12-05T07:33:35;46.38;;;20.98;;
30307;SDS011;17114;52.314;8.910;2022-12-05T07:36:04;43.25;;;20.10;;
30307;SDS011;17114;52.314;8.910;2022-12-05T07:38:32;45.70;;;20.67;;
30307;SDS011;17114;52.314;8.910;2022-12-05T07:41:03;43.35;;;19.67;;
30307;SDS011;17114;52.314;8.910;2022-12-05T07:43:38;41.95;;;20.45;;
30307;SDS011;17114;52.314;8.910;2022-12-05T07:46:06;42.78;;;19.52;;
30307;SDS011;17114;52.314;8.910;2022-12-05T07:48:34;43.67;;;19.73;;
30307;SDS011;17114;52.314;8.910;2022-12-05T07:51:01;42.83;;;19.88;;
30307;SDS011;17114;52.314;8.910;2022-12-05T07:53:29;40.38;;;19.60;;
30307;SDS011;17114;52.314;8.910;2022-12-05T07:55:58;40.67;;;20.30;;
30307;SDS011;17114;52.314;8.910;2022-12-05T07:58:26;38.47;;;18.85;;
30307;SDS011;17114;52.314;8.910;2022-12-05T08:00:54;38.58;;;18.98;;
30307;SDS011;17114;52.314;8.910;2022-12-05T08:03:22;41.42;;;19.15;;
30307;SDS011;17114;52.314;8.910;2022-12-05T08:05:49;36.33;;;18.00;;
30307;SDS011;17114;52.314;8.910;2022-12-05T08:08:16;37.97;;;18.27;;
30307;SDS011;17114;52.314;8.910;2022-12-05T08:10:43;36.05;;;17.70;;
30307;SDS011;17114;52.314;8.910;2022-12-05T08:13:10;36.15;;;18.80;;
30307;SDS011;17114;52.314;8.910;2022-12-05T08:15:36;37.20;;;18.70;;
30307;SDS011;17114;52.314;8.910;2022-12-05T08:18:03;33.33;;;18.05;;
30307;SDS011;17114;52.314;8.910;2022-12-05T08:20:30;38.78;;;18.23;;
30307;SDS011;17114;52.314;8.910;2022-12-05T08:22:57;32.17;;;17.65;;
30307;SDS011;17114;52.314;8.910;2022-12-05T08:25:23;37.55;;;17.85;;
30307;SDS011;17114;52.314;8.910;2022-12-05T08:27:50;38.95;;;18.77;;
30307;SDS011;17114;52.314;8.910;2022-12-05T08:30:17;35.00;;;18.25;;
30307;SDS011;17114;52.314;8.910;2022-12-05T08:32:44;36.55;;;18.75;;
30307;SDS011;17114;52.314;8.910;2022-12-05T08:35:11;39.15;;;19.67;;
30307;SDS011;17114;52.314;8.910;2022-12-05T08:37:38;36.42;;;17.95;;
30307;SDS011;17114;52.314;8.910;2022-12-05T08:40:05;37.65;;;18.35;;
30307;SDS011;17114;52.314;8.910;2022-12-05T08:42:32;41.63;;;19.58;;
30307;SDS011;17114;52.314;8.910;2022-12-05T08:44:59;39.90;;;19.40;;
30307;SDS011;17114;52.314;8.910;2022-12-05T08:47:26;37.00;;;18.98;;
30307;SDS011;17114;52.314;8.910;2022-12-05T08:49:52;38.42;;;19.05;;
30307;SDS011;17114;52.314;8.910;2022-12-05T08:52:19;38.67;;;19.55;;
30307;SDS011;17114;52.314;8.910;2022-12-05T08:54:48;36.70;;;19.25;;
30307;SDS011;17114;52.314;8.910;2022-12-05T08:57:14;36.83;;;17.95;;
30307;SDS011;17114;52.314;8.910;2022-12-05T08:59:41;38.50;;;18.98;;
30307;SDS011;17114;52.314;8.910;2022-12-05T09:02:09;34.67;;;18.80;;
30307;SDS011;17114;52.314;8.910;2022-12-05T09:04:36;38.72;;;18.63;;
30307;SDS011;17114;52.314;8.910;2022-12-05T09:07:03;36.10;;;18.40;;
30307;SDS011;17114;52.314;8.910;2022-12-05T09:09:29;36.00;;;18.75;;
30307;SDS011;17114;52.314;8.910;2022-12-05T09:11:57;34.00;;;18.08;;
30307;SDS011;17114;52.314;8.910;2022-12-05T09:14:25;40.10;;;19.63;;
30307;SDS011;17114;52.314;8.910;2022-12-05T09:16:58;35.33;;;18.58;;
30307;SDS011;17114;52.314;8.910;2022-12-05T09:19:26;41.13;;;20.25;;
30307;SDS011;17114;52.314;8.910;2022-12-05T09:21:54;35.80;;;19.00;;
30307;SDS011;17114;52.314;8.910;2022-12-05T09:24:21;33.00;;;17.90;;
30307;SDS011;17114;52.314;8.910;2022-12-05T09:26:48;36.17;;;18.50;;
30307;SDS011;17114;52.314;8.910;2022-12-05T09:29:15;37.13;;;19.23;;
30307;SDS011;17114;52.314;8.910;2022-12-05T09:31:44;34.53;;;18.25;;
30307;SDS011;17114;52.314;8.910;2022-12-05T09:34:11;33.75;;;17.60;;
30307;SDS011;17114;52.314;8.910;2022-12-05T09:36:40;31.83;;;17.25;;
30307;SDS011;17114;52.314;8.910;2022-12-05T09:39:07;33.13;;;17.60;;
30307;SDS011;17114;52.314;8.910;2022-12-05T09:49:50;32.40;;;16.63;;
30307;SDS011;17114;52.314;8.910;2022-12-05T09:52:31;31.02;;;17.10;;
30307;SDS011;17114;52.314;8.910;2022-12-05T09:55:04;31.30;;;16.73;;
30307;SDS011;17114;52.314;8.910;2022-12-05T09:57:56;30.88;;;17.17;;
30307;SDS011;17114;52.314;8.910;2022-12-05T10:00:25;26.77;;;16.17;;
30307;SDS011;17114;52.314;8.910;2022-12-05T10:06:05;28.58;;;16.23;;
30307;SDS011;17114;52.314;8.910;2022-12-05T10:17:34;26.60;;;15.90;;
30307;SDS011;17114;52.314;8.910;2022-12-05T10:20:12;27.83;;;14.95;;
30307;SDS011;17114;52.314;8.910;2022-12-05T10:26:22;27.13;;;15.77;;
30307;SDS011;17114;52.314;8.910;2022-12-05T10:32:06;25.85;;;15.30;;
30307;SDS011;17114;52.314;8.910;2022-12-05T10:34:43;25.07;;;15.20;;
30307;SDS011;17114;52.314;8.910;2022-12-05T10:39:42;28.27;;;15.63;;
30307;SDS011;17114;52.314;8.910;2022-12-05T10:42:20;26.17;;;14.93;;
30307;SDS011;17114;52.314;8.910;2022-12-05T10:45:03;27.05;;;14.88;;
30307;SDS011;17114;52.314;8.910;2022-12-05T10:47:33;23.27;;;14.02;;
30307;SDS011;17114;52.314;8.910;2022-12-05T10:50:05;24.45;;;13.52;;
30307;SDS011;17114;52.314;8.910;2022-12-05T10:52:42;22.98;;;14.18;;
30307;SDS011;17114;52.314;8.910;2022-12-05T10:55:12;22.58;;;13.52;;
30307;SDS011;17114;52.314;8.910;2022-12-05T10:57:43;21.42;;;13.57;;
30307;SDS011;17114;52.314;8.910;2022-12-05T11:00:18;22.42;;;14.65;;
30307;SDS011;17114;52.314;8.910;2022-12-05T11:02:49;23.02;;;14.15;;
30307;SDS011;17114;52.314;8.910;2022-12-05T11:05:25;24.60;;;14.55;;
30307;SDS011;17114;52.314;8.910;2022-12-05T11:07:54;25.52;;;14.85;;
30307;SDS011;17114;52.314;8.910;2022-12-05T11:10:33;24.35;;;15.45;;
30307;SDS011;17114;52.314;8.910;2022-12-05T11:13:13;24.58;;;15.32;;
30307;SDS011;17114;52.314;8.910;2022-12-05T11:15:45;23.08;;;14.35;;
30307;SDS011;17114;52.314;8.910;2022-12-05T11:20:50;21.95;;;13.45;;
30307;SDS011;17114;52.314;8.910;2022-12-05T11:23:35;22.65;;;14.02;;
30307;SDS011;17114;52.314;8.910;2022-12-05T11:26:02;22.35;;;13.75;;
30307;SDS011;17114;52.314;8.910;2022-12-05T11:28:33;22.77;;;13.52;;
30307;SDS011;17114;52.314;8.910;2022-12-05T11:33:30;22.63;;;13.55;;
30307;SDS011;17114;52.314;8.910;2022-12-05T11:36:22;22.40;;;13.80;;
30307;SDS011;17114;52.314;8.910;2022-12-05T11:39:00;21.08;;;13.77;;
30307;SDS011;17114;52.314;8.910;2022-12-05T11:41:46;20.48;;;12.95;;
30307;SDS011;17114;52.314;8.910;2022-12-05T11:53:03;19.38;;;12.98;;
30307;SDS011;17114;52.314;8.910;2022-12-05T12:08:00;18.50;;;12.10;;
30307;SDS011;17114;52.314;8.910;2022-12-05T12:11:17;17.52;;;11.60;;
30307;SDS011;17114;52.314;8.910;2022-12-05T12:13:50;17.73;;;11.98;;
30307;SDS011;17114;52.314;8.910;2022-12-05T12:19:55;18.95;;;12.93;;
30307;SDS011;17114;52.314;8.910;2022-12-05T12:25:59;17.63;;;11.68;;
30307;SDS011;17114;52.314;8.910;2022-12-05T12:31:13;21.15;;;13.40;;
30307;SDS011;17114;52.314;8.910;2022-12-05T12:34:04;22.27;;;13.65;;
30307;SDS011;17114;52.314;8.910;2022-12-05T12:36:43;22.05;;;14.35;;
30307;SDS011;17114;52.314;8.910;2022-12-05T12:39:34;19.90;;;13.05;;
30307;SDS011;17114;52.314;8.910;2022-12-05T12:48:08;21.13;;;12.55;;
30307;SDS011;17114;52.314;8.910;2022-12-05T12:50:49;18.95;;;12.23;;
30307;SDS011;17114;52.314;8.910;2022-12-05T12:59:02;21.95;;;13.00;;
30307;SDS011;17114;52.314;8.910;2022-12-05T13:01:52;19.85;;;12.18;;
30307;SDS011;17114;52.314;8.910;2022-12-05T13:04:27;18.88;;;12.52;;
30307;SDS011;17114;52.314;8.910;2022-12-05T13:07:00;17.70;;;11.93;;
30307;SDS011;17114;52.314;8.910;2022-12-05T13:09:37;19.75;;;11.80;;
30307;SDS011;17114;52.314;8.910;2022-12-05T13:12:16;16.15;;;10.77;;
30307;SDS011;17114;52.314;8.910;2022-12-05T13:14:59;18.38;;;11.63;;
30307;SDS011;17114;52.314;8.910;2022-12-05T13:17:32;18.45;;;12.15;;
30307;SDS011;17114;52.314;8.910;2022-12-05T13:19:59;16.95;;;10.98;;
30307;SDS011;17114;52.314;8.910;2022-12-05T13:22:26;16.70;;;10.55;;
30307;SDS011;17114;52.314;8.910;2022-12-05T13:24:54;17.10;;;10.98;;
30307;SDS011;17114;52.314;8.910;2022-12-05T13:27:22;16.42;;;11.07;;
30307;SDS011;17114;52.314;8.910;2022-12-05T13:29:59;15.63;;;10.32;;
30307;SDS011;17114;52.314;8.910;2022-12-05T13:37:32;17.30;;;10.88;;
30307;SDS011;17114;52.314;8.910;2022-12-05T13:43:17;15.40;;;10.48;;
30307;SDS011;17114;52.314;8.910;2022-12-05T13:46:06;16.40;;;10.63;;
30307;SDS011;17114;52.314;8.910;2022-12-05T13:48:40;16.75;;;11.02;;
30307;SDS011;17114;52.314;8.910;2022-12-05T13:51:13;17.98;;;10.98;;
30307;SDS011;17114;52.314;8.910;2022-12-05T13:54:00;14.45;;;10.20;;
30307;SDS011;17114;52.314;8.910;2022-12-05T14:08:48;17.90;;;11.75;;
30307;SDS011;17114;52.314;8.910;2022-12-05T14:13:38;16.00;;;10.70;;
30307;SDS011;17114;52.314;8.910;2022-12-05T14:18:51;16.63;;;11.13;;
30307;SDS011;17114;52.314;8.910;2022-12-05T14:21:59;15.50;;;11.13;;
30307;SDS011;17114;52.314;8.910;2022-12-05T14:32:59;18.02;;;11.43;;
30307;SDS011;17114;52.314;8.910;2022-12-05T14:35:29;22.33;;;11.77;;
30307;SDS011;17114;52.314;8.910;2022-12-05T14:38:05;18.15;;;12.18;;
30307;SDS011;17114;52.314;8.910;2022-12-05T14:40:43;19.10;;;11.80;;
30307;SDS011;17114;52.314;8.910;2022-12-05T14:43:19;18.38;;;12.57;;
30307;SDS011;17114;52.314;8.910;2022-12-05T14:48:25;17.52;;;11.50;;
30307;SDS011;17114;52.314;8.910;2022-12-05T14:54:17;16.10;;;10.82;;
30307;SDS011;17114;52.314;8.910;2022-12-05T14:56:45;17.98;;;12.02;;
30307;SDS011;17114;52.314;8.910;2022-12-05T15:01:45;18.05;;;11.68;;
30307;SDS011;17114;52.314;8.910;2022-12-05T15:07:30;18.30;;;11.85;;
30307;SDS011;17114;52.314;8.910;2022-12-05T15:12:45;17.95;;;12.45;;
30307;SDS011;17114;52.314;8.910;2022-12-05T15:17:53;19.13;;;11.18;;
30307;SDS011;17114;52.314;8.910;2022-12-05T15:26:01;16.23;;;10.95;;
30307;SDS011;17114;52.314;8.910;2022-12-05T15:31:29;19.42;;;12.60;;
30307;SDS011;17114;52.314;8.910;2022-12-05T15:33:59;18.83;;;11.70;;
30307;SDS011;17114;52.314;8.910;2022-12-05T15:36:43;18.83;;;12.73;;
30307;SDS011;17114;52.314;8.910;2022-12-05T15:39:16;18.92;;;11.48;;
30307;SDS011;17114;52.314;8.910;2022-12-05T15:41:49;17.60;;;11.90;;
30307;SDS011;17114;52.314;8.910;2022-12-05T15:44:17;17.58;;;11.45;;
30307;SDS011;17114;52.314;8.910;2022-12-05T15:46:52;17.88;;;11.45;;
30307;SDS011;17114;52.314;8.910;2022-12-05T15:49:22;14.93;;;10.30;;
30307;SDS011;17114;52.314;8.910;2022-12-05T15:51:52;18.30;;;11.93;;
30307;SDS011;17114;52.314;8.910;2022-12-05T15:54:26;15.75;;;11.18;;
30307;SDS011;17114;52.314;8.910;2022-12-05T15:57:21;21.15;;;12.52;;
30307;SDS011;17114;52.314;8.910;2022-12-05T15:59:49;19.70;;;12.02;;
30307;SDS011;17114;52.314;8.910;2022-12-05T16:02:32;25.08;;;14.20;;
30307;SDS011;17114;52.314;8.910;2022-12-05T16:07:50;23.88;;;14.80;;
30307;SDS011;17114;52.314;8.910;2022-12-05T16:10:18;27.77;;;15.82;;
30307;SDS011;17114;52.314;8.910;2022-12-05T16:12:49;26.60;;;16.45;;
30307;SDS011;17114;52.314;8.910;2022-12-05T16:15:22;26.15;;;16.20;;
30307;SDS011;17114;52.314;8.910;2022-12-05T16:17:55;24.70;;;15.98;;
30307;SDS011;17114;52.314;8.910;2022-12-05T16:20:28;30.73;;;18.23;;
30307;SDS011;17114;52.314;8.910;2022-12-05T16:22:59;27.73;;;16.88;;
30307;SDS011;17114;52.314;8.910;2022-12-05T16:25:32;25.98;;;15.60;;
30307;SDS011;17114;52.314;8.910;2022-12-05T16:30:33;25.17;;;15.75;;
30307;SDS011;17114;52.314;8.910;2022-12-05T16:33:05;24.50;;;15.45;;
30307;SDS011;17114;52.314;8.910;2022-12-05T16:35:42;25.40;;;15.65;;
30307;SDS011;17114;52.314;8.910;2022-12-05T16:40:55;33.33;;;18.90;;
30307;SDS011;17114;52.314;8.910;2022-12-05T16:48:42;24.77;;;16.00;;
30307;SDS011;17114;52.314;8.910;2022-12-05T16:56:15;28.30;;;16.60;;
30307;SDS011;17114;52.314;8.910;2022-12-05T16:58:52;24.25;;;15.02;;
30307;SDS011;17114;52.314;8.910;2022-12-05T17:01:20;25.33;;;15.38;;
30307;SDS011;17114;52.314;8.910;2022-12-05T17:03:50;24.02;;;14.98;;
30307;SDS011;17114;52.314;8.910;2022-12-05T17:06:22;28.75;;;18.00;;
30307;SDS011;17114;52.314;8.910;2022-12-05T17:08:50;28.77;;;17.55;;
30307;SDS011;17114;52.314;8.910;2022-12-05T17:13:50;31.48;;;18.95;;
30307;SDS011;17114;52.314;8.910;2022-12-05T17:16:18;29.55;;;18.80;;
30307;SDS011;17114;52.314;8.910;2022-12-05T17:18:46;35.05;;;20.38;;
30307;SDS011;17114;52.314;8.910;2022-12-05T17:21:14;35.28;;;20.83;;
30307;SDS011;17114;52.314;8.910;2022-12-05T17:23:44;33.35;;;20.02;;
30307;SDS011;17114;52.314;8.910;2022-12-05T17:26:14;30.42;;;18.35;;
30307;SDS011;17114;52.314;8.910;2022-12-05T17:28:45;32.03;;;18.75;;
30307;SDS011;17114;52.314;8.910;2022-12-05T17:31:12;37.63;;;19.27;;
30307;SDS011;17114;52.314;8.910;2022-12-05T17:33:43;42.58;;;21.10;;
30307;SDS011;17114;52.314;8.910;2022-12-05T17:36:11;53.28;;;25.23;;
30307;SDS011;17114;52.314;8.910;2022-12-05T17:38:38;39.67;;;20.90;;
30307;SDS011;17114;52.314;8.910;2022-12-05T17:41:06;37.28;;;19.88;;
30307;SDS011;17114;52.314;8.910;2022-12-05T17:43:33;27.92;;;16.50;;
30307;SDS011;17114;52.314;8.910;2022-12-05T17:46:00;30.23;;;18.17;;
30307;SDS011;17114;52.314;8.910;2022-12-05T17:48:28;30.77;;;17.67;;
30307;SDS011;17114;52.314;8.910;2022-12-05T17:50:55;32.40;;;19.77;;
30307;SDS011;17114;52.314;8.910;2022-12-05T17:53:25;34.45;;;20.60;;
30307;SDS011;17114;52.314;8.910;2022-12-05T17:55:52;41.38;;;23.25;;
30307;SDS011;17114;52.314;8.910;2022-12-05T17:58:18;33.55;;;20.55;;
30307;SDS011;17114;52.314;8.910;2022-12-05T18:00:45;32.85;;;21.13;;
30307;SDS011;17114;52.314;8.910;2022-12-05T18:03:13;40.90;;;23.33;;
30307;SDS011;17114;52.314;8.910;2022-12-05T18:05:43;33.97;;;20.50;;
30307;SDS011;17114;52.314;8.910;2022-12-05T18:08:11;32.92;;;20.48;;
30307;SDS011;17114;52.314;8.910;2022-12-05T18:10:42;37.95;;;22.23;;